Time;durP1;ratioP1;P1;durP2;ratioP2;P2;SDS_P1;SDS_P2;PMS_P1;PMS_P2;Temp;Humidity;BMP_temperature;BMP_pressure;BME280_temperature;BME280_humidity;BME280_pressure;Samples;Min_cycle;Max_cycle;Signal;HPM_P1;HPM_P2
2022/10/04 00:04:44;;;;;;;0.45;0.30;;;;;;;7.07;100.00;99335.94;10522020;28;20056;-77
2022/10/04 00:10:02;;;;;;;0.10;0.10;;;;;;;7.10;100.00;99340.81;10523821;28;20044;-77
2022/10/04 00:15:18;;;;;;;0.45;0.30;;;;;;;7.14;100.00;99338.34;10478284;28;20057;-77
2022/10/04 00:20:49;;;;;;;0.20;0.20;;;;;;;7.17;100.00;99341.31;10463981;28;20053;-76
2022/10/04 00:26:02;;;;;;;0.52;0.40;;;;;;;7.19;100.00;99341.00;10445853;28;20053;-76
2022/10/04 00:31:12;;;;;;;1.20;0.30;;;;;;;7.24;100.00;99346.41;10454254;28;20040;-77
2022/10/04 00:36:23;;;;;;;0.40;0.40;;;;;;;7.28;100.00;99344.72;10439012;28;20037;-77
2022/10/04 00:41:26;;;;;;;0.50;0.50;;;;;;;7.32;100.00;99337.59;10501727;28;20037;-76
2022/10/04 00:46:29;;;;;;;0.50;0.50;;;;;;;7.36;100.00;99349.53;10548685;27;20514;-77
2022/10/04 00:51:42;;;;;;;1.00;0.50;;;;;;;7.39;100.00;99340.75;10567533;27;20045;-76
2022/10/04 00:56:44;;;;;;;0.40;0.40;;;;;;;7.43;100.00;99357.34;10486698;28;20048;-77
2022/10/04 01:01:48;;;;;;;0.80;0.50;;;;;;;7.47;100.00;99355.69;10520938;28;20499;-76
2022/10/04 01:06:51;;;;;;;0.50;0.50;;;;;;;7.48;100.00;99351.84;10520991;28;20052;-77
2022/10/04 01:12:03;;;;;;;0.28;0.17;;;;;;;7.50;100.00;99363.28;10520521;28;20052;-77
2022/10/04 01:17:07;;;;;;;0.30;0.30;;;;;;;7.49;100.00;99370.66;10449200;28;20042;-77
2022/10/04 01:22:13;;;;;;;0.60;0.50;;;;;;;7.50;100.00;99363.28;10475460;28;20056;-77
2022/10/04 01:27:33;;;;;;;0.70;0.70;;;;;;;7.49;100.00;99378.03;10463761;28;20392;-77
2022/10/04 01:32:36;;;;;;;0.45;0.43;;;;;;;7.48;100.00;99377.22;10462840;28;20115;-77
2022/10/04 01:37:38;;;;;;;0.82;0.65;;;;;;;7.46;100.00;99376.72;10448933;28;20334;-76
2022/10/04 01:42:44;;;;;;;0.50;0.50;;;;;;;7.45;100.00;99383.25;10442810;28;20049;-76
2022/10/04 01:47:59;;;;;;;1.10;0.60;;;;;;;7.45;100.00;99385.97;10461541;28;20033;-77
2022/10/04 01:53:13;;;;;;;0.70;0.70;;;;;;;7.47;100.00;99393.91;10435107;28;20053;-77
2022/10/04 01:58:27;;;;;;;1.45;0.65;;;;;;;7.50;100.00;99393.31;10428980;28;20052;-76
2022/10/04 02:03:36;;;;;;;0.75;0.70;;;;;;;7.50;100.00;99401.50;10481522;27;20048;-77
2022/10/04 02:08:45;;;;;;;1.52;0.82;;;;;;;7.51;100.00;99392.22;10490367;28;20032;-77
2022/10/04 02:13:50;;;;;;;0.77;0.43;;;;;;;7.49;100.00;99403.44;10508633;28;20056;-77
2022/10/04 02:18:53;;;;;;;0.43;0.43;;;;;;;7.46;100.00;99400.44;10468478;28;20041;-77
2022/10/04 02:23:56;;;;;;;0.75;0.70;;;;;;;7.44;100.00;99410.84;10467529;28;20063;-77
2022/10/04 02:28:58;;;;;;;0.82;0.68;;;;;;;7.42;100.00;99419.31;10467857;28;20045;-76
2022/10/04 02:34:00;;;;;;;5.07;0.90;;;;;;;7.42;100.00;99418.50;10484491;28;20049;-77
2022/10/04 02:39:14;;;;;;;0.60;0.60;;;;;;;7.41;100.00;99422.34;10460269;28;20053;-77
2022/10/04 02:44:44;;;;;;;0.40;0.32;;;;;;;7.39;100.00;99424.56;10455054;27;20048;-76
2022/10/04 02:49:53;;;;;;;0.50;0.50;;;;;;;7.36;100.00;99442.31;10454824;28;20563;-77
2022/10/04 02:55:13;;;;;;;2.90;0.80;;;;;;;7.34;100.00;99451.91;10443827;27;20048;-77
2022/10/04 03:00:15;;;;;;;0.50;0.50;;;;;;;7.25;100.00;99465.34;10473738;28;20044;-77
2022/10/04 03:05:17;;;;;;;1.10;0.43;;;;;;;7.18;100.00;99459.41;10442340;27;20049;-77
2022/10/04 03:10:21;;;;;;;0.20;0.20;;;;;;;7.12;100.00;99444.22;10462439;27;20044;-78
2022/10/04 03:15:25;;;;;;;4.68;0.68;;;;;;;7.02;100.00;99463.38;10501162;27;20044;-78
2022/10/04 03:20:27;;;;;;;0.50;0.50;;;;;;;6.94;100.00;99462.06;10499964;28;20511;-77
2022/10/04 03:25:37;;;;;;;0.68;0.68;;;;;;;6.90;100.00;99470.03;10445744;27;20041;-78
2022/10/04 03:30:43;;;;;;;1.45;0.25;;;;;;;6.85;100.00;99463.81;10460116;28;20033;-78
2022/10/04 03:35:49;;;;;;;0.20;0.20;;;;;;;6.82;100.00;99472.56;10471102;28;20060;-78
2022/10/04 03:40:57;;;;;;;1.25;0.77;;;;;;;6.74;100.00;99484.06;10488292;28;20040;-77
2022/10/04 03:45:59;;;;;;;;;;;;;;;6.69;100.00;99487.63;10454324;27;20045;-77
2022/10/04 03:51:04;;;;;;;2.60;0.85;;;;;;;6.69;100.00;99484.09;10470120;28;20314;-77
2022/10/04 03:56:16;;;;;;;1.02;0.50;;;;;;;6.66;100.00;99488.22;10478141;27;20057;-76
2022/10/04 04:01:47;;;;;;;2.00;0.90;;;;;;;6.65;100.00;99497.50;10486387;27;20387;-77
2022/10/04 04:07:11;;;;;;;0.50;0.50;;;;;;;6.62;100.00;99484.44;10469017;28;20052;-77
2022/10/04 04:12:19;;;;;;;1.88;0.80;;;;;;;6.60;100.00;99511.97;10524874;27;20572;-77
2022/10/04 04:17:24;;;;;;;2.75;0.80;;;;;;;6.64;100.00;99507.59;10482712;27;20055;-78
2022/10/04 04:22:30;;;;;;;0.52;0.38;;;;;;;6.75;100.00;99499.31;10476116;27;20061;-77
2022/10/04 04:27:35;;;;;;;2.97;0.93;;;;;;;6.78;100.00;99505.03;10480058;27;20044;-79
2022/10/04 04:32:40;;;;;;;0.90;0.90;;;;;;;6.82;100.00;99506.09;10463640;28;20090;-78
2022/10/04 04:37:43;;;;;;;3.20;0.80;;;;;;;6.88;100.00;99496.75;10462088;28;20044;-78
2022/10/04 04:42:46;;;;;;;0.70;0.70;;;;;;;6.90;100.00;99502.75;10444786;28;20052;-78
2022/10/04 04:47:53;;;;;;;1.13;1.02;;;;;;;6.90;100.00;99505.47;10444202;28;20048;-78
2022/10/04 04:53:14;;;;;;;1.55;1.13;;;;;;;6.86;100.00;99509.06;10455493;28;20060;-78
2022/10/04 04:58:23;;;;;;;0.50;0.50;;;;;;;6.85;100.00;99513.69;10487608;27;20052;-78
2022/10/04 05:03:28;;;;;;;4.22;1.40;;;;;;;6.83;100.00;99515.91;10477049;28;20041;-78
2022/10/04 05:08:33;;;;;;;1.27;0.98;;;;;;;6.87;100.00;99519.69;10477465;28;21241;-79
2022/10/04 05:13:54;;;;;;;0.70;0.70;;;;;;;7.03;100.00;99542.19;10434593;28;20490;-78
2022/10/04 05:18:59;;;;;;;1.15;1.05;;;;;;;7.05;100.00;99528.28;10475890;28;20037;-78
2022/10/04 05:24:10;;;;;;;1.55;1.20;;;;;;;7.07;100.00;99515.16;10450642;28;20058;-78
2022/10/04 05:29:18;;;;;;;1.25;1.13;;;;;;;7.14;100.00;99510.22;10444328;27;20056;-78
2022/10/04 05:34:24;;;;;;;1.17;1.10;;;;;;;7.19;100.00;99501.97;10432423;28;20046;-78
2022/10/04 05:39:32;;;;;;;1.65;1.27;;;;;;;7.29;100.00;99506.50;10463894;28;20041;-78
2022/10/04 05:44:36;;;;;;;2.55;1.52;;;;;;;7.22;100.00;99520.50;10454514;28;20041;-77
2022/10/04 05:49:42;;;;;;;2.00;1.30;;;;;;;7.30;100.00;99530.00;10475514;28;20048;-78
2022/10/04 05:54:45;;;;;;;1.98;1.23;;;;;;;7.42;100.00;99531.22;10462554;28;20045;-78
2022/10/04 05:59:56;;;;;;;1.65;1.50;;;;;;;7.38;100.00;99524.72;10463592;28;20482;-77
2022/10/04 06:05:07;;;;;;;2.42;1.45;;;;;;;7.25;100.00;99534.38;10452125;27;20029;-78
2022/10/04 06:10:47;;;;;;;2.65;2.05;;;;;;;7.12;100.00;99531.50;10489247;28;20046;-78
2022/10/04 06:15:58;;;;;;;3.75;2.00;;;;;;;7.10;100.00;99528.22;10491474;28;20046;-78
2022/10/04 06:21:23;;;;;;;3.38;2.10;;;;;;;7.03;100.00;99539.47;10508962;28;20049;-78
2022/10/04 06:26:42;;;;;;;2.88;1.70;;;;;;;7.02;100.00;99534.31;10492981;28;20057;-78
2022/10/04 06:31:47;;;;;;;1.90;1.70;;;;;;;7.03;100.00;99544.13;10493413;28;20351;-78
2022/10/04 06:37:01;;;;;;;2.67;1.95;;;;;;;7.01;100.00;99555.31;10484378;28;20506;-78
2022/10/04 06:42:32;;;;;;;4.00;1.40;;;;;;;7.00;100.00;99542.78;10474323;28;20068;-78
2022/10/04 06:47:53;;;;;;;1.67;1.25;;;;;;;7.04;100.00;99545.75;10470452;28;20040;-78
2022/10/04 06:53:15;;;;;;;4.38;1.58;;;;;;;7.04;100.00;99543.00;10465659;28;20049;-78
2022/10/04 06:58:31;;;;;;;1.63;0.75;;;;;;;7.04;100.00;99546.56;10490045;28;20446;-78
2022/10/04 07:03:46;;;;;;;2.75;1.10;;;;;;;7.06;100.00;99544.34;10471422;28;20037;-78
2022/10/04 07:08:50;;;;;;;1.95;1.10;;;;;;;7.11;100.00;99532.56;10444523;28;20041;-78
2022/10/04 07:14:04;;;;;;;3.72;1.10;;;;;;;7.15;100.00;99533.66;10478729;28;20048;-78
2022/10/04 07:19:18;;;;;;;2.05;1.17;;;;;;;7.19;100.00;99526.53;10494655;28;20048;-78
2022/10/04 07:24:41;;;;;;;2.72;1.40;;;;;;;7.19;100.00;99538.25;10423058;28;20049;-78
2022/10/04 07:29:45;;;;;;;2.28;1.23;;;;;;;7.20;100.00;99539.06;10473323;27;20046;-78
2022/10/04 07:34:53;;;;;;;0.90;0.85;;;;;;;7.22;100.00;99539.59;10439747;28;20049;-77
2022/10/04 07:40:01;;;;;;;5.03;1.30;;;;;;;7.23;100.00;99539.31;10420879;28;20033;-78
2022/10/04 07:45:19;;;;;;;1.60;1.45;;;;;;;7.28;100.00;99540.34;10591201;28;20059;-78
2022/10/04 07:50:25;;;;;;;0.98;0.82;;;;;;;7.33;100.00;99556.69;10488526;28;20044;-78
2022/10/04 07:55:36;;;;;;;1.88;1.48;;;;;;;7.35;100.00;99544.41;10450174;28;20049;-78
2022/10/04 08:00:59;;;;;;;2.33;1.35;;;;;;;7.39;100.00;99550.91;10426337;28;20037;-77
2022/10/04 08:06:17;;;;;;;1.02;0.50;;;;;;;7.43;100.00;99546.50;10422076;28;20038;-78
2022/10/04 08:11:30;;;;;;;2.65;1.00;;;;;;;7.48;100.00;99551.09;10421194;28;20400;-78
2022/10/04 08:16:33;;;;;;;1.23;0.63;;;;;;;7.52;100.00;99569.34;10422960;28;20045;-78
2022/10/04 08:21:54;;;;;;;1.90;1.10;;;;;;;7.53;100.00;99560.06;10429381;28;20041;-78
2022/10/04 08:29:41;;;;;;;1.08;0.90;;;;;;;7.52;100.00;99572.06;10518929;27;20514;-78
2022/10/04 08:33:21;;;;;;;1.25;1.15;;;;;;;7.59;100.00;99579.91;10427937;28;20056;-79
2022/10/04 08:38:36;;;;;;;1.98;1.10;;;;;;;7.71;100.00;99594.00;10442232;28;20044;-79
2022/10/04 08:43:56;;;;;;;1.95;1.10;;;;;;;7.79;100.00;99587.09;10454935;28;20053;-78
2022/10/04 08:49:16;;;;;;;2.15;1.30;;;;;;;7.92;100.00;99602.00;10478695;28;20037;-77
2022/10/04 08:54:28;;;;;;;0.95;0.70;;;;;;;8.05;100.00;99602.13;10479486;28;20052;-77
2022/10/04 08:59:52;;;;;;;1.48;1.00;;;;;;;8.17;100.00;99599.00;10514120;27;20059;-80
2022/10/04 09:05:21;;;;;;;1.48;0.93;;;;;;;8.23;100.00;99600.56;10501415;28;20558;-81
2022/10/04 09:10:45;;;;;;;0.50;0.50;;;;;;;8.16;100.00;99609.13;10481528;28;20521;-78
2022/10/04 09:15:50;;;;;;;1.35;0.68;;;;;;;8.20;100.00;99625.75;10467143;28;20045;-80
2022/10/04 09:20:59;;;;;;;0.75;0.75;;;;;;;8.18;100.00;99635.34;10444959;28;20060;-81
2022/10/04 09:26:07;;;;;;;0.65;0.65;;;;;;;8.30;100.00;99630.28;10440965;28;20041;-82
2022/10/04 09:31:41;;;;;;;0.95;0.88;;;;;;;8.38;100.00;99635.97;10477642;28;20048;-81
2022/10/04 09:36:49;;;;;;;1.95;0.70;;;;;;;8.40;100.00;99646.59;10471910;28;20056;-84
2022/10/04 09:42:30;;;;;;;0.77;0.60;;;;;;;8.43;100.00;99651.47;10487670;28;20061;-80
2022/10/04 09:48:01;;;;;;;1.10;0.85;;;;;;;8.44;100.00;99664.03;10462222;28;20183;-80
2022/10/04 09:53:19;;;;;;;0.60;0.50;;;;;;;8.49;100.00;99669.44;10479671;27;20402;-80
2022/10/04 09:58:30;;;;;;;1.27;0.68;;;;;;;8.55;100.00;99662.81;10464248;28;20033;-79
2022/10/04 10:03:35;;;;;;;0.85;0.70;;;;;;;8.72;99.74;99660.44;10478097;28;20049;-80
2022/10/04 10:08:52;;;;;;;1.38;0.60;;;;;;;8.75;99.71;99669.97;10471756;28;20053;-79
2022/10/04 10:14:06;;;;;;;1.27;0.80;;;;;;;8.78;99.57;99683.06;10425732;28;20415;-77
2022/10/04 10:19:36;;;;;;;2.05;0.60;;;;;;;8.67;97.57;99682.34;10466551;28;20406;-78
2022/10/04 10:25:10;;;;;;;0.90;0.75;;;;;;;8.57;96.77;99679.75;10463636;28;20499;-77
2022/10/04 10:30:26;;;;;;;0.57;0.57;;;;;;;8.79;95.55;99692.06;10474368;28;20029;-77
2022/10/04 10:35:38;;;;;;;4.13;0.80;;;;;;;8.75;95.22;99709.06;10451804;28;20105;-78
2022/10/04 10:40:44;;;;;;;1.10;0.57;;;;;;;8.83;95.72;99709.53;10489152;27;20052;-78
2022/10/04 10:46:03;;;;;;;1.67;0.50;;;;;;;8.88;94.71;99712.22;10452932;27;20038;-78
2022/10/04 10:51:11;;;;;;;1.17;0.77;;;;;;;9.00;94.67;99712.59;10441571;28;20059;-78
2022/10/04 10:56:42;;;;;;;0.70;0.70;;;;;;;8.99;94.43;99730.94;10424837;28;20057;-78
2022/10/04 11:01:52;;;;;;;0.90;0.70;;;;;;;8.87;92.37;99727.00;10441855;28;20038;-78
2022/10/04 11:07:25;;;;;;;0.88;0.85;;;;;;;8.70;89.88;99741.16;10426844;28;20045;-77
2022/10/04 11:12:45;;;;;;;1.58;0.52;;;;;;;8.76;87.23;99751.72;10426176;28;20269;-76
2022/10/04 11:18:19;;;;;;;0.55;0.40;;;;;;;8.81;86.00;99747.31;10482050;28;20415;-77
2022/10/04 11:24:06;;;;;;;1.05;0.60;;;;;;;9.02;85.18;99749.53;10484534;27;20052;-77
2022/10/04 11:29:27;;;;;;;0.50;0.50;;;;;;;9.03;85.80;99758.56;10479403;28;20041;-79
2022/10/04 11:34:56;;;;;;;0.75;0.60;;;;;;;8.97;86.80;99770.63;10440995;28;20182;-78
2022/10/04 11:40:38;;;;;;;1.58;0.60;;;;;;;8.87;87.25;99784.47;10429178;28;20041;-78
2022/10/04 11:46:11;;;;;;;1.35;0.50;;;;;;;8.83;86.67;99802.53;10469946;28;20068;-78
2022/10/04 11:51:17;;;;;;;1.38;0.90;;;;;;;8.70;86.98;99788.47;10441906;28;20042;-78
2022/10/04 11:56:19;;;;;;;1.70;0.70;;;;;;;8.62;86.90;99802.75;10446976;28;20055;-78
2022/10/04 12:01:42;;;;;;;1.75;0.52;;;;;;;8.61;86.92;99801.13;10480394;28;20391;-78
2022/10/04 12:07:22;;;;;;;1.50;0.63;;;;;;;8.58;86.52;99811.81;10481076;28;20043;-78
2022/10/04 12:12:52;;;;;;;0.90;0.60;;;;;;;8.53;87.66;99831.03;10463050;28;20037;-79
2022/10/04 12:18:16;;;;;;;0.40;0.40;;;;;;;8.50;86.42;99815.97;10468886;28;20041;-81
2022/10/04 12:23:37;;;;;;;1.75;0.70;;;;;;;8.54;87.51;99838.94;10445474;28;20057;-82
2022/10/04 12:29:02;;;;;;;0.60;0.30;;;;;;;8.54;86.83;99840.84;10478010;28;20553;-76
2022/10/04 12:34:13;;;;;;;0.30;0.30;;;;;;;8.53;87.98;99845.50;10460920;28;20150;-81
2022/10/04 12:39:29;;;;;;;0.30;0.25;;;;;;;8.57;87.50;99838.34;10457412;27;20061;-86
2022/10/04 12:44:58;;;;;;;2.00;0.85;;;;;;;8.58;87.33;99859.13;10441154;28;20047;-85
2022/10/04 12:50:03;;;;;;;1.85;0.30;;;;;;;8.58;87.22;99863.78;10454755;28;20037;-77
2022/10/04 12:55:36;;;;;;;0.40;0.40;;;;;;;8.63;87.90;99870.00;10512638;28;20057;-77
2022/10/04 13:00:42;;;;;;;0.82;0.50;;;;;;;8.65;86.61;99872.47;10474749;28;20057;-78
2022/10/04 13:06:02;;;;;;;0.73;0.47;;;;;;;8.62;86.28;99884.78;10465039;28;20533;-77
2022/10/04 13:11:38;;;;;;;2.08;0.50;;;;;;;8.60;86.59;99881.53;10520898;28;20033;-77
2022/10/04 13:17:05;;;;;;;1.40;0.70;;;;;;;8.62;85.87;99895.72;10439600;28;20415;-77
2022/10/04 13:22:30;;;;;;;1.00;0.43;;;;;;;8.59;85.28;99893.56;10423256;28;20041;-77
2022/10/04 13:28:00;;;;;;;1.23;0.52;;;;;;;8.58;84.78;99904.78;10469482;27;20045;-78
2022/10/04 13:33:40;;;;;;;0.88;0.63;;;;;;;8.57;85.33;99919.56;10459069;28;20032;-77
2022/10/04 13:38:45;;;;;;;0.80;0.60;;;;;;;8.55;84.39;99908.13;10427026;28;20415;-78
2022/10/04 13:44:11;;;;;;;0.55;0.43;;;;;;;8.56;84.88;99913.28;10453880;28;20048;-78
2022/10/04 13:50:13;;;;;;;1.98;0.80;;;;;;;8.57;84.56;99916.84;10476885;28;20041;-79
2022/10/04 14:01:14;;;;;;;1.20;0.70;;;;;;;8.58;84.99;99934.88;10485381;28;20056;-78
2022/10/04 14:06:42;;;;;;;1.23;0.63;;;;;;;8.58;83.57;99934.88;10467153;28;20045;-78
2022/10/04 14:12:16;;;;;;;1.58;0.57;;;;;;;8.60;83.64;99933.50;10484884;28;20037;-78
2022/10/04 14:17:37;;;;;;;1.02;0.80;;;;;;;8.55;84.01;99943.66;10467780;28;20041;-78
2022/10/04 14:23:19;;;;;;;0.82;0.60;;;;;;;8.51;84.03;99948.88;10485720;28;20061;-78
2022/10/04 14:28:46;;;;;;;1.30;0.77;;;;;;;8.49;84.14;99951.06;10467318;28;20056;-77
2022/10/04 14:34:06;;;;;;;1.50;0.80;;;;;;;8.49;84.53;99961.19;10484387;28;20060;-78
2022/10/04 14:39:27;;;;;;;1.20;0.70;;;;;;;8.54;84.01;99969.38;10477572;28;20495;-77
2022/10/04 14:44:38;;;;;;;1.73;0.70;;;;;;;8.53;84.48;99974.03;10484217;28;20053;-77
2022/10/04 14:49:48;;;;;;;1.17;0.90;;;;;;;8.53;84.96;99979.50;10484125;28;20036;-77
2022/10/04 14:55:07;;;;;;;0.45;0.45;;;;;;;8.53;84.56;99984.97;10465714;28;20056;-77
2022/10/04 15:00:20;;;;;;;1.00;0.70;;;;;;;8.50;85.44;99980.03;10463247;28;20033;-78
2022/10/04 15:05:44;;;;;;;1.73;0.80;;;;;;;8.46;85.62;99992.66;10516863;27;20037;-77
2022/10/04 15:10:53;;;;;;;1.77;1.00;;;;;;;8.42;85.61;100003.34;10462479;28;20045;-77
2022/10/04 15:15:59;;;;;;;0.80;0.75;;;;;;;8.38;85.20;100023.31;10489831;28;20056;-77
2022/10/04 15:21:34;;;;;;;2.13;1.00;;;;;;;8.33;85.29;100020.56;10515078;28;20067;-78
2022/10/04 15:27:07;;;;;;;1.38;1.10;;;;;;;8.30;85.51;100023.88;10491616;27;20490;-77
2022/10/04 15:32:26;;;;;;;4.25;1.00;;;;;;;8.25;85.21;100026.63;10480603;28;20510;-77
2022/10/04 15:37:50;;;;;;;1.63;1.30;;;;;;;8.58;87.78;100036.88;10485854;28;20438;-77
2022/10/04 15:43:03;;;;;;;3.83;1.52;;;;;;;8.53;87.48;100039.66;10461388;28;20324;-77
2022/10/04 15:48:09;;;;;;;12.15;2.17;;;;;;;8.99;88.27;100031.94;10490144;27;20049;-76
2022/10/04 15:53:29;;;;;;;0.98;0.82;;;;;;;9.75;86.36;100030.44;10493913;28;20053;-76
2022/10/04 15:58:49;;;;;;;2.70;1.35;;;;;;;9.62;84.19;100034.66;10475605;28;20083;-76
2022/10/04 16:04:11;;;;;;;1.75;1.10;;;;;;;9.71;82.47;100034.84;10496218;28;20053;-77
2022/10/04 16:09:39;;;;;;;2.03;1.23;;;;;;;9.81;81.32;100042.97;10494306;28;20052;-78
2022/10/04 16:15:18;;;;;;;1.75;1.00;;;;;;;9.67;81.24;100040.09;10473744;28;20491;-76
2022/10/04 16:20:57;;;;;;;2.80;1.58;;;;;;;9.40;80.83;100047.22;10495715;28;20053;-77
2022/10/04 16:26:05;;;;;;;2.45;1.27;;;;;;;9.07;82.07;100057.91;10500549;28;20048;-78
2022/10/04 16:31:19;;;;;;;2.20;1.48;;;;;;;8.84;81.74;100058.59;10486124;28;20521;-77
2022/10/04 16:36:25;;;;;;;2.25;1.30;;;;;;;8.68;82.69;100066.09;10490262;28;20043;-77
2022/10/04 16:41:42;;;;;;;3.40;2.20;;;;;;;9.03;82.84;100060.38;10501742;27;20060;-76
2022/10/04 16:46:45;;;;;;;2.78;1.08;;;;;;;8.85;82.77;100062.97;10495495;27;20430;-76
2022/10/04 16:52:14;;;;;;;1.77;1.17;;;;;;;8.54;83.96;100067.81;10469043;28;20040;-77
2022/10/04 16:57:21;;;;;;;4.82;1.50;;;;;;;8.28;83.91;100065.16;10456531;28;20064;-77
2022/10/04 17:02:50;;;;;;;2.67;1.25;;;;;;;8.12;85.58;100066.31;10480079;28;20033;-79
2022/10/04 17:08:14;;;;;;;1.50;1.10;;;;;;;7.98;85.58;100071.53;10481477;28;20049;-78
2022/10/04 17:13:35;;;;;;;5.63;1.23;;;;;;;7.83;87.05;100071.59;10480050;28;20060;-77
2022/10/04 17:19:02;;;;;;;1.95;1.33;;;;;;;7.82;87.51;100080.91;10441747;28;20061;-77
2022/10/04 17:24:07;;;;;;;3.20;1.55;;;;;;;7.72;88.78;100089.09;10439532;28;20046;-77
2022/10/04 17:29:48;;;;;;;3.05;2.03;;;;;;;7.62;88.24;100089.09;10459230;28;20049;-77
2022/10/04 17:35:18;;;;;;;3.47;2.00;;;;;;;7.48;88.47;100088.88;10462409;27;20053;-78
2022/10/04 17:41:01;;;;;;;4.88;2.28;;;;;;;7.47;89.22;100087.22;10463910;27;20045;-85
2022/10/04 17:46:07;;;;;;;3.22;1.67;;;;;;;7.37;89.40;100085.31;10477263;27;20092;-80
2022/10/04 17:56:52;;;;;;;3.28;1.75;;;;;;;7.71;90.36;100104.66;10429966;27;20048;-82
2022/10/04 18:02:20;;;;;;;2.25;1.77;;;;;;;7.59;90.57;100106.84;10422585;27;20037;-82
2022/10/04 18:07:25;;;;;;;;;;;;;;;7.64;91.09;100104.13;10468435;27;20044;-78
2022/10/04 18:12:54;;;;;;;5.22;1.88;;;;;;;7.52;90.06;100111.78;10495193;28;19931;-81
2022/10/04 18:18:26;;;;;;;4.72;2.00;;;;;;;7.57;90.48;100106.31;10476145;27;20061;-81
2022/10/04 18:23:34;;;;;;;2.00;1.65;;;;;;;7.64;90.71;100108.78;10493652;27;20051;-79
2022/10/04 18:28:36;;;;;;;4.47;1.50;;;;;;;7.50;91.51;100111.25;10489522;28;20561;-80
2022/10/04 18:34:36;;;;;;;2.65;1.90;;;;;;;7.66;90.96;100114.78;10493447;28;20056;-88
2022/10/04 18:39:46;;;;;;;2.67;1.40;;;;;;;7.46;91.00;100113.72;10450350;28;20053;-81
2022/10/04 18:45:00;;;;;;;2.53;1.65;;;;;;;7.40;91.30;100125.69;10450014;28;20040;-80
2022/10/04 18:50:21;;;;;;;3.08;1.80;;;;;;;7.51;91.54;100119.16;10481269;28;20056;-81
2022/10/04 18:55:56;;;;;;;3.13;1.90;;;;;;;7.50;92.04;100128.44;10485305;28;20041;-79
2022/10/04 19:06:46;;;;;;;1.75;1.35;;;;;;;7.21;92.10;100149.16;10523367;27;20032;-82
2022/10/04 19:12:01;;;;;;;3.00;1.70;;;;;;;7.23;92.44;100147.78;10491764;28;20033;-82
2022/10/04 19:17:33;;;;;;;3.63;1.50;;;;;;;7.24;92.11;100145.88;10475329;28;20049;-82
2022/10/04 19:23:06;;;;;;;2.60;1.27;;;;;;;7.37;93.14;100142.63;10482951;27;20059;-82
2022/10/04 19:28:25;;;;;;;3.53;2.22;;;;;;;7.47;92.46;100131.72;10481507;28;20038;-82
2022/10/04 19:33:37;;;;;;;2.85;1.45;;;;;;;7.48;92.21;100124.34;10453949;27;20194;-82
2022/10/04 19:38:45;;;;;;;3.63;2.42;;;;;;;7.32;92.49;100136.34;10466035;27;20044;-80
2022/10/04 19:43:54;;;;;;;3.90;2.03;;;;;;;7.18;91.95;100146.97;10457684;28;20038;-79
2022/10/04 19:48:57;;;;;;;3.88;1.95;;;;;;;7.22;92.55;100139.88;10502454;28;20045;-79
2022/10/04 19:54:08;;;;;;;4.32;2.00;;;;;;;7.26;93.59;100140.97;10450031;28;20041;-78
2022/10/04 19:59:34;;;;;;;4.07;2.03;;;;;;;7.37;93.62;100152.72;10504133;28;20043;-81
2022/10/04 20:04:42;;;;;;;6.55;2.30;;;;;;;7.47;94.00;100152.75;10481421;28;20503;-78
2022/10/04 20:09:53;;;;;;;10.63;3.63;;;;;;;7.58;94.06;100143.44;10475924;28;20514;-78
2022/10/04 20:15:13;;;;;;;10.88;3.20;;;;;;;7.50;93.22;100146.72;10480975;28;20040;-81
2022/10/04 20:21:02;;;;;;;7.85;3.30;;;;;;;7.58;93.67;100157.09;10517782;28;20045;-80
2022/10/04 20:26:50;;;;;;;13.73;3.30;;;;;;;7.63;93.16;100140.69;10470359;28;20300;-81
2022/10/04 20:31:40;;;;;;;10.68;3.60;;;;;;;7.59;93.05;100149.72;10479957;27;20029;-79
2022/10/04 20:36:50;;;;;;;7.05;3.88;;;;;;;7.61;93.23;100148.34;10428672;27;20503;-78
2022/10/04 20:42:18;;;;;;;5.77;3.10;;;;;;;7.57;93.29;100148.09;10451661;28;20049;-77
2022/10/04 20:47:39;;;;;;;7.07;3.45;;;;;;;7.55;93.16;100165.84;10507200;27;20045;-78
2022/10/04 20:52:47;;;;;;;9.63;4.28;;;;;;;7.56;92.50;100170.19;10462733;28;20486;-78
2022/10/04 20:57:49;;;;;;;9.15;4.35;;;;;;;7.65;93.19;100181.41;10467126;28;20056;-79
2022/10/04 21:03:11;;;;;;;16.92;4.88;;;;;;;7.59;92.24;100172.38;10521152;27;20051;-80
2022/10/04 21:08:27;;;;;;;8.38;4.00;;;;;;;7.66;92.45;100161.22;10447683;28;20048;-78
2022/10/04 21:13:56;;;;;;;10.95;4.03;;;;;;;7.57;92.63;100161.75;10455575;27;20044;-80
2022/10/04 21:19:29;;;;;;;10.60;4.10;;;;;;;7.38;91.56;100168.81;10464639;27;20045;-80
2022/10/04 21:24:52;;;;;;;8.25;4.75;;;;;;;7.24;92.73;100159.53;10552673;27;20041;-78
2022/10/04 21:29:55;;;;;;;8.95;5.53;;;;;;;7.21;92.58;100166.34;10443484;27;20040;-79
2022/10/04 21:34:57;;;;;;;10.90;4.25;;;;;;;7.22;93.49;100167.16;10512013;28;20049;-77
2022/10/04 21:39:59;;;;;;;10.80;4.80;;;;;;;7.15;93.47;100158.44;10458980;28;20050;-78
2022/10/04 21:45:02;;;;;;;10.50;4.95;;;;;;;7.08;93.29;100157.84;10473872;27;20045;-77
2022/10/04 21:50:04;;;;;;;6.80;4.18;;;;;;;6.89;93.84;100154.81;10485882;28;20411;-78
2022/10/04 21:55:09;;;;;;;5.43;4.03;;;;;;;6.86;93.50;100161.63;10505336;28;20047;-79
2022/10/04 22:00:11;;;;;;;12.25;4.22;;;;;;;6.86;94.66;100161.63;10479688;27;20052;-78
2022/10/04 22:05:17;;;;;;;8.93;3.60;;;;;;;6.77;93.89;100168.72;10449186;28;20038;-77
2022/10/04 22:10:19;;;;;;;6.47;3.17;;;;;;;6.86;94.36;100178.00;10464386;27;20419;-77
2022/10/04 22:15:22;;;;;;;4.53;3.13;;;;;;;6.87;94.72;100182.34;10460610;27;20049;-78
2022/10/04 22:20:26;;;;;;;3.65;2.63;;;;;;;6.94;94.87;100179.38;10480881;27;20500;-75
2022/10/04 22:25:32;;;;;;;4.32;2.63;;;;;;;6.99;94.63;100178.59;10441661;27;20407;-76
2022/10/04 22:30:35;;;;;;;5.10;3.33;;;;;;;6.98;94.43;100187.84;10464420;27;20479;-81
2022/10/04 22:35:37;;;;;;;7.00;2.92;;;;;;;7.00;94.57;100186.50;10488233;27;20560;-78
2022/10/04 22:40:39;;;;;;;7.75;3.17;;;;;;;6.98;94.70;100196.03;10454301;27;20049;-78
2022/10/04 22:45:42;;;;;;;5.20;3.13;;;;;;;6.99;94.47;100206.69;10478393;27;20037;-76
2022/10/04 22:50:44;;;;;;;5.90;3.03;;;;;;;7.01;95.17;100209.97;10473760;27;20040;-77
2022/10/04 22:55:50;;;;;;;5.35;3.03;;;;;;;7.06;95.15;100212.69;10467096;27;20040;-78
2022/10/04 23:00:54;;;;;;;4.85;2.83;;;;;;;7.12;95.37;100213.56;10477456;27;20053;-79
2022/10/04 23:06:00;;;;;;;5.45;3.30;;;;;;;7.06;94.85;100206.41;10478759;27;20049;-75
2022/10/04 23:11:02;;;;;;;7.00;3.30;;;;;;;6.99;95.32;100208.59;10453516;27;20074;-78
2022/10/04 23:16:34;;;;;;;6.88;3.13;;;;;;;6.80;95.18;100219.97;10448726;27;20563;-74
2022/10/04 23:21:38;;;;;;;6.55;3.58;;;;;;;6.75;95.64;100219.13;10443391;27;20059;-76
2022/10/04 23:26:42;;;;;;;3.95;2.70;;;;;;;6.73;96.22;100222.13;10423351;27;20037;-75
2022/10/04 23:31:46;;;;;;;4.03;3.13;;;;;;;6.73;96.44;100224.84;10428729;27;20033;-76
2022/10/04 23:36:48;;;;;;;4.53;2.90;;;;;;;6.75;96.65;100219.13;10450625;27;20041;-76
2022/10/04 23:41:52;;;;;;;6.57;2.90;;;;;;;6.82;95.86;100220.53;10459174;27;20057;-77
2022/10/04 23:46:55;;;;;;;4.70;3.42;;;;;;;6.77;95.80;100217.78;10406417;27;20429;-74
2022/10/04 23:52:01;;;;;;;5.00;3.40;;;;;;;6.68;96.31;100216.66;10481436;27;20033;-75
2022/10/04 23:57:07;;;;;;;8.30;4.57;;;;;;;6.60;95.84;100217.97;10474020;27;20045;-75
